createdAt,value
2023-05-10T00:00:47.428Z,2.35
2023-05-10T00:03:13.922Z,2.50
2023-05-10T00:05:40.358Z,2.28
2023-05-10T00:08:06.823Z,2.42
2023-05-10T00:10:33.346Z,3.38
2023-05-10T00:12:59.891Z,2.65
2023-05-10T00:15:28.903Z,2.97
2023-05-10T00:17:56.213Z,2.80
2023-05-10T00:20:22.814Z,2.70
2023-05-10T00:22:49.392Z,2.70
2023-05-10T00:25:15.981Z,2.28
2023-05-10T00:27:42.411Z,2.20
2023-05-10T00:30:09.116Z,2.80
2023-05-10T00:32:35.645Z,2.70
2023-05-10T00:35:02.142Z,2.28
2023-05-10T00:37:28.714Z,2.50
2023-05-10T00:39:55.136Z,2.50
2023-05-10T00:42:21.977Z,2.85
2023-05-10T00:44:48.646Z,2.33
2023-05-10T00:47:15.218Z,2.67
2023-05-10T00:49:42.760Z,2.47
2023-05-10T00:52:09.906Z,2.50
2023-05-10T00:54:36.483Z,2.65
2023-05-10T00:57:03.405Z,2.95
2023-05-10T00:59:29.963Z,2.40
2023-05-10T01:01:56.638Z,2.85
2023-05-10T01:04:29.373Z,2.50
2023-05-10T01:06:55.938Z,2.33
2023-05-10T01:09:22.732Z,2.60
2023-05-10T01:11:49.742Z,2.63
2023-05-10T01:14:18.240Z,2.33
2023-05-10T01:16:45.222Z,2.83
2023-05-10T01:19:19.719Z,2.58
2023-05-10T01:21:55.504Z,2.45
2023-05-10T01:24:28.030Z,2.08
2023-05-10T01:26:57.584Z,2.78
2023-05-10T01:29:42.722Z,2.53
2023-05-10T01:32:13.015Z,2.50
2023-05-10T01:34:46.944Z,2.00
2023-05-10T01:37:17.935Z,2.60
2023-05-10T01:39:51.168Z,2.80
2023-05-10T01:42:19.084Z,2.30
2023-05-10T01:44:51.826Z,2.30
2023-05-10T01:47:21.177Z,2.60
2023-05-10T01:52:16.885Z,2.70
2023-05-10T01:54:45.794Z,2.85
2023-05-10T01:57:15.284Z,2.67
2023-05-10T01:59:44.145Z,2.28
2023-05-10T02:02:13.128Z,2.47
2023-05-10T02:04:40.744Z,2.50
2023-05-10T02:07:07.792Z,2.40
2023-05-10T02:09:35.907Z,2.42
2023-05-10T02:12:03.689Z,2.25
2023-05-10T02:14:31.764Z,2.50
2023-05-10T02:16:59.814Z,2.33
2023-05-10T02:19:27.167Z,2.70
2023-05-10T02:21:54.045Z,2.50
2023-05-10T02:24:21.670Z,2.60
2023-05-10T02:26:49.292Z,2.40
2023-05-10T02:29:19.696Z,2.47
2023-05-10T02:31:51.733Z,2.40
2023-05-10T02:34:18.431Z,2.63
2023-05-10T02:36:45.932Z,2.88
2023-05-10T02:39:14.506Z,2.45
2023-05-10T02:41:41.856Z,2.70
2023-05-10T02:44:11.007Z,2.97
2023-05-10T02:46:38.651Z,2.63
2023-05-10T02:49:05.714Z,2.70
2023-05-10T02:51:33.071Z,2.60
2023-05-10T02:54:02.122Z,3.03
2023-05-10T02:56:36.991Z,2.63
2023-05-10T02:59:03.459Z,2.92
2023-05-10T03:01:30.347Z,2.85
2023-05-10T03:03:57.839Z,2.63
2023-05-10T03:06:24.516Z,2.60
2023-05-10T03:08:51.016Z,2.80
2023-05-10T03:11:26.700Z,2.80
2023-05-10T03:14:11.353Z,2.92
2023-05-10T03:16:45.005Z,2.58
2023-05-10T03:19:19.724Z,2.83
2023-05-10T03:21:48.843Z,3.40
2023-05-10T03:24:16.693Z,2.55
2023-05-10T03:26:44.647Z,2.47
2023-05-10T03:29:11.743Z,2.83
2023-05-10T03:31:39.242Z,3.20
2023-05-10T03:34:05.800Z,2.55
2023-05-10T03:36:32.767Z,2.50
2023-05-10T03:38:59.494Z,2.60
2023-05-10T03:41:26.478Z,3.13
2023-05-10T03:43:52.979Z,2.72
2023-05-10T03:46:19.441Z,3.00
2023-05-10T03:48:46.400Z,2.63
2023-05-10T03:51:13.189Z,2.55
2023-05-10T03:53:39.880Z,2.50
2023-05-10T03:56:06.574Z,2.88
2023-05-10T03:58:33.086Z,2.45
2023-05-10T04:00:59.645Z,2.67
2023-05-10T04:03:26.928Z,3.00
2023-05-10T04:06:02.916Z,2.90
2023-05-10T04:08:30.018Z,3.42
2023-05-10T04:11:06.302Z,2.85
2023-05-10T04:13:33.264Z,2.58
2023-05-10T04:15:59.717Z,2.78
2023-05-10T04:18:26.548Z,3.00
2023-05-10T04:20:53.753Z,2.72
2023-05-10T04:23:20.469Z,2.95
2023-05-10T04:25:47.225Z,2.65
2023-05-10T04:28:13.727Z,3.05
2023-05-10T04:30:40.994Z,2.75
2023-05-10T04:33:07.547Z,3.13
2023-05-10T04:35:35.179Z,2.78
2023-05-10T04:38:01.874Z,3.15
2023-05-10T04:40:28.385Z,3.05
2023-05-10T04:42:55.733Z,2.50
2023-05-10T04:45:22.237Z,2.90
2023-05-10T04:47:48.816Z,3.00
2023-05-10T04:50:15.704Z,2.90
2023-05-10T04:52:42.495Z,2.95
2023-05-10T04:55:10.647Z,3.10
2023-05-10T04:57:37.164Z,3.15
2023-05-10T05:00:04.031Z,2.90
2023-05-10T05:02:30.799Z,3.03
2023-05-10T05:05:00.345Z,3.10
2023-05-10T05:07:27.093Z,2.72
2023-05-10T05:09:53.556Z,3.13
2023-05-10T05:12:20.008Z,3.22
2023-05-10T05:14:46.947Z,3.17
2023-05-10T05:17:14.949Z,2.80
2023-05-10T05:19:41.569Z,3.13
2023-05-10T05:22:09.238Z,3.00
2023-05-10T05:24:36.820Z,2.67
2023-05-10T05:27:03.611Z,3.10
2023-05-10T05:29:30.285Z,3.03
2023-05-10T05:31:57.751Z,3.10
2023-05-10T05:34:25.409Z,3.20
2023-05-10T05:36:52.274Z,2.90
2023-05-10T05:39:18.813Z,3.20
2023-05-10T05:41:45.380Z,2.85
2023-05-10T05:44:12.094Z,2.88
2023-05-10T05:46:39.340Z,2.83
2023-05-10T05:49:06.168Z,3.15
2023-05-10T05:51:32.615Z,3.35
2023-05-10T05:53:59.255Z,3.22
2023-05-10T05:56:26.040Z,2.92
2023-05-10T05:58:52.696Z,3.78
2023-05-10T06:01:19.688Z,3.22
2023-05-10T06:03:46.308Z,3.00
2023-05-10T06:06:13.531Z,3.00
2023-05-10T06:08:40.184Z,3.17
2023-05-10T06:11:06.998Z,2.85
2023-05-10T06:13:34.499Z,3.25
2023-05-10T06:16:01.161Z,3.10
2023-05-10T06:18:27.752Z,3.47
2023-05-10T06:20:54.145Z,3.15
2023-05-10T06:23:20.726Z,3.28
2023-05-10T06:25:47.303Z,2.97
2023-05-10T06:28:13.833Z,3.20
2023-05-10T06:30:40.533Z,3.30
2023-05-10T06:33:07.121Z,3.25
2023-05-10T06:35:34.580Z,3.03
2023-05-10T06:38:01.140Z,2.75
2023-05-10T06:40:27.804Z,3.20
2023-05-10T06:42:54.325Z,3.22
2023-05-10T06:45:21.607Z,3.40
2023-05-10T06:47:48.292Z,3.30
2023-05-10T06:50:14.800Z,3.00
2023-05-10T06:52:41.341Z,3.00
2023-05-10T06:55:09.301Z,2.90
2023-05-10T06:57:35.875Z,3.40
2023-05-10T07:00:02.683Z,3.10
2023-05-10T07:02:29.538Z,3.30
2023-05-10T07:04:56.446Z,3.17
2023-05-10T07:07:22.978Z,3.03
2023-05-10T07:09:50.952Z,2.95
2023-05-10T07:12:17.565Z,3.07
2023-05-10T07:14:44.127Z,2.83
2023-05-10T07:17:11.245Z,2.95
2023-05-10T07:19:37.833Z,3.25
2023-05-10T07:22:04.499Z,3.22
2023-05-10T07:24:32.357Z,2.92
2023-05-10T07:26:58.941Z,3.08
2023-05-10T07:29:25.433Z,2.80
2023-05-10T07:31:51.970Z,3.38
2023-05-10T07:34:18.548Z,2.90
2023-05-10T07:36:45.448Z,3.08
2023-05-10T07:39:16.224Z,3.00
2023-05-10T07:41:48.039Z,3.30
2023-05-10T07:44:14.555Z,3.20
2023-05-10T07:46:41.547Z,3.03
2023-05-10T07:49:08.098Z,3.22
2023-05-10T07:51:34.911Z,3.00
2023-05-10T07:54:01.455Z,3.20
2023-05-10T07:56:30.785Z,3.17
2023-05-10T07:58:57.367Z,3.50
2023-05-10T08:01:23.848Z,3.33
2023-05-10T08:03:52.604Z,3.45
2023-05-10T08:08:50.110Z,2.95
2023-05-10T08:11:19.868Z,3.03
2023-05-10T08:13:46.534Z,3.25
2023-05-10T08:16:13.418Z,3.05
2023-05-10T08:18:40.286Z,3.00
2023-05-10T08:21:07.060Z,2.97
2023-05-10T08:23:33.483Z,3.33
2023-05-10T08:26:00.179Z,3.25
2023-05-10T08:28:26.676Z,2.72
2023-05-10T08:30:53.318Z,3.45
2023-05-10T08:33:19.967Z,3.15
2023-05-10T08:35:46.489Z,3.03
2023-05-10T08:38:13.851Z,3.05
2023-05-10T08:40:44.248Z,2.55
2023-05-10T08:43:15.677Z,3.20
2023-05-10T08:45:43.580Z,3.38
2023-05-10T08:48:12.252Z,2.88
2023-05-10T08:50:40.128Z,3.03
2023-05-10T08:53:10.254Z,3.33
2023-05-10T08:55:39.939Z,2.92
2023-05-10T08:58:06.912Z,3.58
2023-05-10T09:00:33.808Z,3.30
2023-05-10T09:03:00.849Z,3.47
2023-05-10T09:05:27.785Z,2.83
2023-05-10T09:07:54.565Z,3.10
2023-05-10T09:10:21.860Z,2.97
2023-05-10T09:12:51.447Z,2.70
2023-05-10T09:15:20.246Z,2.97
2023-05-10T09:17:47.187Z,2.60
2023-05-10T09:20:13.832Z,2.95
2023-05-10T09:22:41.265Z,2.58
2023-05-10T09:25:08.972Z,2.73
2023-05-10T09:27:35.684Z,2.45
2023-05-10T09:30:02.276Z,2.83
2023-05-10T09:32:38.925Z,2.58
2023-05-10T09:35:10.527Z,2.78
2023-05-10T09:37:37.069Z,2.70
2023-05-10T09:40:08.497Z,2.92
2023-05-10T09:42:35.634Z,3.10
2023-05-10T09:45:05.758Z,2.90
2023-05-10T09:47:35.728Z,2.85
2023-05-10T09:50:06.083Z,2.58
2023-05-10T09:52:46.579Z,2.70
2023-05-10T09:55:13.280Z,2.90
2023-05-10T09:57:39.938Z,2.83
2023-05-10T10:00:07.158Z,3.17
2023-05-10T10:02:37.629Z,3.50
2023-05-10T10:05:04.934Z,2.90
2023-05-10T10:07:31.752Z,3.13
2023-05-10T10:09:59.340Z,2.97
2023-05-10T10:12:26.267Z,2.53
2023-05-10T10:14:52.964Z,2.50
2023-05-10T10:17:21.176Z,2.60
2023-05-10T10:19:49.387Z,2.70
2023-05-10T10:22:16.100Z,2.70
2023-05-10T10:24:42.731Z,2.80
2023-05-10T10:27:22.063Z,2.63
2023-05-10T10:29:59.313Z,2.40
2023-05-10T10:32:37.002Z,2.63
2023-05-10T10:35:03.858Z,2.55
2023-05-10T10:37:46.354Z,2.55
2023-05-10T10:40:28.003Z,2.72
2023-05-10T10:42:55.192Z,2.60
2023-05-10T10:45:22.731Z,2.80
2023-05-10T10:47:49.337Z,2.40
2023-05-10T10:50:17.270Z,2.20
2023-05-10T10:52:44.420Z,2.55
2023-05-10T10:55:12.032Z,2.45
2023-05-10T10:57:42.123Z,2.50
2023-05-10T11:00:25.095Z,2.20
2023-05-10T11:02:52.733Z,2.80
2023-05-10T11:07:52.876Z,2.53
2023-05-10T11:10:22.574Z,2.30
2023-05-10T11:13:08.521Z,2.50
2023-05-10T11:15:44.547Z,2.00
2023-05-10T11:18:21.516Z,2.53
2023-05-10T11:20:56.613Z,2.63
2023-05-10T11:23:23.613Z,2.30
2023-05-10T11:25:51.145Z,2.70
2023-05-10T11:28:18.513Z,2.20
2023-05-10T11:30:45.597Z,2.10
2023-05-10T11:33:16.755Z,1.77
2023-05-10T11:35:43.702Z,1.90
2023-05-10T11:38:14.078Z,2.05
2023-05-10T11:40:41.694Z,2.15
2023-05-10T11:43:09.471Z,1.90
2023-05-10T11:48:03.728Z,2.00
2023-05-10T11:50:30.351Z,2.22
2023-05-10T11:52:58.770Z,1.98
2023-05-10T11:55:25.953Z,1.63
2023-05-10T11:57:54.077Z,1.80
2023-05-10T12:00:20.991Z,1.90
2023-05-10T12:02:47.817Z,1.98
2023-05-10T12:05:14.938Z,1.50
2023-05-10T12:07:41.378Z,1.80
2023-05-10T12:10:11.605Z,2.50
2023-05-10T12:12:43.251Z,2.05
2023-05-10T12:15:13.707Z,2.20
2023-05-10T12:17:43.443Z,1.92
2023-05-10T12:20:19.405Z,1.70
2023-05-10T12:22:56.636Z,2.25
2023-05-10T12:25:24.762Z,2.00
2023-05-10T12:27:59.349Z,2.08
2023-05-10T12:30:27.106Z,2.03
2023-05-10T12:32:53.991Z,2.10
2023-05-10T12:35:25.159Z,1.83
2023-05-10T12:37:52.094Z,1.90
2023-05-10T12:40:18.742Z,2.00
2023-05-10T12:42:48.337Z,1.98
2023-05-10T12:45:14.903Z,2.05
2023-05-10T12:47:43.901Z,1.90
2023-05-10T12:55:08.159Z,1.98
2023-05-10T12:57:34.812Z,1.95
2023-05-10T13:00:01.279Z,1.83
2023-05-10T13:02:27.763Z,1.45
2023-05-10T13:04:54.310Z,1.92
2023-05-10T13:07:21.272Z,2.40
2023-05-10T13:09:47.790Z,2.28
2023-05-10T13:12:14.406Z,2.17
2023-05-10T13:14:41.770Z,2.13
2023-05-10T13:17:08.302Z,2.10
2023-05-10T13:19:34.886Z,2.47
2023-05-10T13:22:01.370Z,2.28
2023-05-10T13:24:27.855Z,2.40
2023-05-10T13:26:54.512Z,2.15
2023-05-10T13:29:22.060Z,2.50
2023-05-10T13:31:49.175Z,2.08
2023-05-10T13:34:15.795Z,1.90
2023-05-10T13:36:42.597Z,2.13
2023-05-10T13:39:10.447Z,1.90
2023-05-10T13:41:37.803Z,1.90
2023-05-10T13:44:04.291Z,2.10
2023-05-10T13:46:31.627Z,2.22
2023-05-10T13:48:58.092Z,2.20
2023-05-10T13:51:24.689Z,2.17
2023-05-10T13:53:51.255Z,2.55
2023-05-10T13:56:17.817Z,2.28
2023-05-10T13:58:44.297Z,2.20
2023-05-10T14:01:10.901Z,2.17
2023-05-10T14:03:37.542Z,2.13
2023-05-10T14:06:04.532Z,2.65
2023-05-10T14:08:31.010Z,2.00
2023-05-10T14:10:58.271Z,2.10
2023-05-10T14:15:51.484Z,2.30
2023-05-10T14:18:18.468Z,2.20
2023-05-10T14:20:46.275Z,2.17
2023-05-10T14:23:13.475Z,1.92
2023-05-10T14:28:06.409Z,2.38
2023-05-10T14:30:33.785Z,1.97
2023-05-10T14:35:29.241Z,1.83
2023-05-10T14:37:56.327Z,1.83
2023-05-10T14:40:24.075Z,1.80
2023-05-10T14:42:51.562Z,1.90
2023-05-10T14:45:18.312Z,1.80
2023-05-10T14:47:44.974Z,1.90
2023-05-10T14:50:14.798Z,1.80
2023-05-10T14:52:48.061Z,2.42
2023-05-10T14:55:16.645Z,2.15
2023-05-10T14:57:43.240Z,1.80
2023-05-10T15:00:10.149Z,2.13
2023-05-10T15:02:37.079Z,1.77
2023-05-10T15:05:04.005Z,1.95
2023-05-10T15:07:32.324Z,1.85
2023-05-10T15:09:58.984Z,1.95
2023-05-10T15:12:25.453Z,2.00
2023-05-10T15:14:52.082Z,2.22
2023-05-10T15:17:18.673Z,2.10
2023-05-10T15:19:45.131Z,2.10
2023-05-10T15:22:11.569Z,2.20
2023-05-10T15:24:38.094Z,2.38
2023-05-10T15:27:04.900Z,2.07
2023-05-10T15:29:35.941Z,2.10
2023-05-10T15:32:02.907Z,1.95
2023-05-10T15:34:31.963Z,2.30
2023-05-10T15:36:59.066Z,2.15
2023-05-10T15:39:28.400Z,2.05
2023-05-10T15:41:54.870Z,2.30
2023-05-10T15:44:21.387Z,2.03
2023-05-10T15:46:48.264Z,2.08
2023-05-10T15:49:15.082Z,2.10
2023-05-10T15:51:41.697Z,2.15
2023-05-10T15:54:08.652Z,2.15
2023-05-10T15:56:35.565Z,2.25
2023-05-10T15:59:02.268Z,2.10
2023-05-10T16:01:29.217Z,2.13
2023-05-10T16:03:55.992Z,2.20
2023-05-10T16:06:22.425Z,2.20
2023-05-10T16:08:52.910Z,2.22
2023-05-10T16:11:21.574Z,2.08
2023-05-10T16:13:48.298Z,2.20
2023-05-10T16:16:14.889Z,2.08
2023-05-10T16:18:42.216Z,2.10
2023-05-10T16:21:09.013Z,2.15
2023-05-10T16:23:35.515Z,1.88
2023-05-10T16:26:02.384Z,2.45
2023-05-10T16:28:29.085Z,2.25
2023-05-10T16:30:55.665Z,2.38
2023-05-10T16:33:22.630Z,2.00
2023-05-10T16:35:49.159Z,1.98
2023-05-10T16:38:15.821Z,2.13
2023-05-10T16:40:43.307Z,2.17
2023-05-10T16:43:09.730Z,2.42
2023-05-10T16:45:36.601Z,2.35
2023-05-10T16:48:03.999Z,1.90
2023-05-10T16:50:30.438Z,2.40
2023-05-10T16:52:57.157Z,2.22
2023-05-10T16:55:26.173Z,2.10
2023-05-10T16:57:52.844Z,2.20
2023-05-10T17:00:21.157Z,2.35
2023-05-10T17:02:48.601Z,2.00
2023-05-10T17:05:15.319Z,2.08
2023-05-10T17:07:48.104Z,1.83
2023-05-10T17:10:14.674Z,2.28
2023-05-10T17:12:41.418Z,2.40
2023-05-10T17:15:11.221Z,2.00
2023-05-10T17:17:37.959Z,2.28
2023-05-10T17:20:05.183Z,2.55
2023-05-10T17:22:34.753Z,2.30
2023-05-10T17:25:04.967Z,2.38
2023-05-10T17:27:36.061Z,2.63
2023-05-10T17:30:02.954Z,2.33
2023-05-10T17:32:31.375Z,2.30
2023-05-10T17:34:58.301Z,2.15
2023-05-10T17:37:25.490Z,2.10
2023-05-10T17:39:52.156Z,1.90
2023-05-10T17:42:19.696Z,2.25
2023-05-10T17:44:46.444Z,2.13
2023-05-10T17:47:13.017Z,2.10
2023-05-10T17:49:40.170Z,2.60
2023-05-10T17:52:06.709Z,2.55
2023-05-10T17:54:33.184Z,2.28
2023-05-10T17:57:01.168Z,1.98
2023-05-10T17:59:27.708Z,2.17
2023-05-10T18:01:54.283Z,1.90
2023-05-10T18:04:21.114Z,2.10
2023-05-10T18:06:47.886Z,2.42
2023-05-10T18:09:16.149Z,2.28
2023-05-10T18:11:42.592Z,2.30
2023-05-10T18:14:09.282Z,2.08
2023-05-10T18:16:35.709Z,2.22
2023-05-10T18:19:02.627Z,2.70
2023-05-10T18:21:29.282Z,2.20
2023-05-10T18:23:55.811Z,1.90
2023-05-10T18:26:22.496Z,2.38
2023-05-10T18:28:49.282Z,2.20
2023-05-10T18:31:19.997Z,2.30
2023-05-10T18:33:46.811Z,2.53
2023-05-10T18:36:14.059Z,3.50
2023-05-10T18:38:43.861Z,2.25
2023-05-10T18:41:13.764Z,2.17
2023-05-10T18:43:41.352Z,2.17
2023-05-10T18:46:07.937Z,2.03
2023-05-10T18:48:34.593Z,2.33
2023-05-10T18:51:01.519Z,1.98
2023-05-10T18:53:28.285Z,2.30
2023-05-10T18:56:01.265Z,1.67
2023-05-10T18:58:28.499Z,2.40
2023-05-10T19:00:55.148Z,2.47
2023-05-10T19:03:22.598Z,2.35
2023-05-10T19:05:49.228Z,1.90
2023-05-10T19:08:16.750Z,2.30
2023-05-10T19:10:43.320Z,2.47
2023-05-10T19:13:09.753Z,2.10
2023-05-10T19:15:36.510Z,2.47
2023-05-10T19:18:05.548Z,2.40
2023-05-10T19:23:09.910Z,2.30
2023-05-10T19:25:36.980Z,2.30
2023-05-10T19:28:03.619Z,2.33
2023-05-10T19:30:31.743Z,2.65
2023-05-10T19:32:58.583Z,1.85
2023-05-10T19:35:25.444Z,2.40
2023-05-10T19:37:52.543Z,2.53
2023-05-10T19:40:19.884Z,2.22
2023-05-10T19:42:47.048Z,2.10
2023-05-10T19:45:15.602Z,2.38
2023-05-10T19:47:43.132Z,1.92
2023-05-10T19:50:09.965Z,2.30
2023-05-10T19:52:40.842Z,2.35
2023-05-10T19:55:08.000Z,2.50
2023-05-10T19:57:34.534Z,2.13
2023-05-10T20:00:01.070Z,2.22
2023-05-10T20:02:27.824Z,2.13
2023-05-10T20:04:54.302Z,2.22
2023-05-10T20:07:21.277Z,2.78
2023-05-10T20:09:48.282Z,2.10
2023-05-10T20:12:14.795Z,2.08
2023-05-10T20:14:41.460Z,2.40
2023-05-10T20:17:08.080Z,2.00
2023-05-10T20:19:34.555Z,2.80
2023-05-10T20:22:01.120Z,2.28
2023-05-10T20:24:27.604Z,2.55
2023-05-10T20:27:04.501Z,2.30
2023-05-10T20:29:32.779Z,2.00
2023-05-10T20:31:59.495Z,2.10
2023-05-10T20:34:26.149Z,2.10
2023-05-10T20:36:54.597Z,2.28
2023-05-10T20:39:26.997Z,2.43
2023-05-10T20:41:56.816Z,2.53
2023-05-10T20:44:23.437Z,2.63
2023-05-10T20:46:53.559Z,2.22
2023-05-10T20:49:20.565Z,2.30
2023-05-10T20:51:49.894Z,2.30
2023-05-10T20:56:48.097Z,2.40
2023-05-10T20:59:19.402Z,3.25
2023-05-10T21:01:47.381Z,2.60
2023-05-10T21:04:14.082Z,2.97
2023-05-10T21:06:42.103Z,2.53
2023-05-10T21:09:11.804Z,2.85
2023-05-10T21:11:41.295Z,2.35
2023-05-10T21:14:09.622Z,2.30
2023-05-10T21:16:39.161Z,2.30
2023-05-10T21:19:07.518Z,2.47
2023-05-10T21:21:35.799Z,2.50
2023-05-10T21:24:05.309Z,2.50
2023-05-10T21:26:31.960Z,2.40
2023-05-10T21:28:59.305Z,2.28
2023-05-10T21:31:27.019Z,2.30
2023-05-10T21:33:53.516Z,2.55
2023-05-10T21:36:20.255Z,2.45
2023-05-10T21:38:47.062Z,2.45
2023-05-10T21:41:13.810Z,2.60
2023-05-10T21:43:40.330Z,2.63
2023-05-10T21:46:07.519Z,2.33
2023-05-10T21:48:34.087Z,2.63
2023-05-10T21:51:01.607Z,2.05
2023-05-10T21:53:28.647Z,2.65
2023-05-10T21:55:58.195Z,4.00
2023-05-10T21:58:24.584Z,2.53
2023-05-10T22:00:52.388Z,2.53
2023-05-10T22:03:19.207Z,2.45
2023-05-10T22:05:45.765Z,2.83
2023-05-10T22:08:12.325Z,2.80
2023-05-10T22:10:38.828Z,2.58
2023-05-10T22:13:05.403Z,2.50
2023-05-10T22:15:34.157Z,2.60
2023-05-10T22:18:02.239Z,2.80
2023-05-10T22:20:29.187Z,2.88
2023-05-10T22:22:55.775Z,2.65
2023-05-10T22:25:22.631Z,2.92
2023-05-10T22:27:49.191Z,2.67
2023-05-10T22:30:16.019Z,2.60
2023-05-10T22:32:42.769Z,2.85
2023-05-10T22:35:09.397Z,2.55
2023-05-10T22:37:36.057Z,2.47
2023-05-10T22:40:02.544Z,2.60
2023-05-10T22:42:29.646Z,2.95
2023-05-10T22:44:56.226Z,3.15
2023-05-10T22:47:22.745Z,2.60
2023-05-10T22:49:49.270Z,2.92
2023-05-10T22:52:15.948Z,2.63
2023-05-10T22:54:42.440Z,2.58
2023-05-10T22:57:08.921Z,3.15
2023-05-10T22:59:35.386Z,2.65
2023-05-10T23:02:02.480Z,2.58
2023-05-10T23:04:29.128Z,2.67
2023-05-10T23:06:55.736Z,3.20
2023-05-10T23:09:23.063Z,2.90
2023-05-10T23:11:49.454Z,3.08
2023-05-10T23:14:16.038Z,2.60
2023-05-10T23:16:42.537Z,2.55
2023-05-10T23:19:09.184Z,3.30
2023-05-10T23:21:36.629Z,3.30
2023-05-10T23:24:03.175Z,4.22
2023-05-10T23:29:10.058Z,2.60
2023-05-10T23:31:37.301Z,3.33
2023-05-10T23:34:04.410Z,2.50
2023-05-10T23:36:31.800Z,2.97
2023-05-10T23:38:58.452Z,2.80
2023-05-10T23:41:26.411Z,2.80
2023-05-10T23:43:52.834Z,3.42
2023-05-10T23:46:20.172Z,2.83
2023-05-10T23:48:46.734Z,2.72
2023-05-10T23:51:13.961Z,3.08
2023-05-10T23:53:40.618Z,2.88
2023-05-10T23:56:08.175Z,2.83
2023-05-10T23:58:34.615Z,2.88
